Time;durP1;ratioP1;P1;durP2;ratioP2;P2;SDS_P1;SDS_P2;PMS_P1;PMS_P2;Temp;Humidity;BMP_temperature;BMP_pressure;BME280_temperature;BME280_humidity;BME280_pressure;Samples;Min_cycle;Max_cycle;Signal;HPM_P1;HPM_P2
2022/12/07 00:01:27;;;;;;;25.30;11.73;;;;;;;4.79;100.00;148655.88;5003561;28;20038;-61
2022/12/07 00:04:00;;;;;;;29.63;14.33;;;;;;;4.80;100.00;148659.72;5003534;28;20052;-61
2022/12/07 00:06:26;;;;;;;25.63;12.67;;;;;;;4.73;100.00;148640.44;5002847;28;20034;-61
2022/12/07 00:08:51;;;;;;;24.27;12.03;;;;;;;4.70;100.00;148635.22;5008475;28;20032;-61
2022/12/07 00:11:19;;;;;;;29.73;13.47;;;;;;;4.73;100.00;148640.44;5009416;28;20646;-61
2022/12/07 00:13:46;;;;;;;27.57;13.17;;;;;;;4.67;100.00;148627.50;5003774;28;20037;-61
2022/12/07 00:16:14;;;;;;;27.30;12.87;;;;;;;4.71;100.00;148636.50;5002100;28;20490;-61
2022/12/07 00:18:41;;;;;;;26.80;12.43;;;;;;;4.67;100.00;148626.22;5010382;28;20506;-61
2022/12/07 00:21:09;;;;;;;28.87;13.47;;;;;;;4.57;100.00;148600.44;5004692;28;20057;-61
2022/12/07 00:23:34;;;;;;;29.33;11.50;;;;;;;4.39;100.00;148555.38;5013784;28;20061;-61
2022/12/07 00:26:05;;;;;;;30.10;12.53;;;;;;;4.36;100.00;148548.94;5000048;28;20520;-61
2022/12/07 00:28:31;;;;;;;27.05;11.32;;;;;;;4.30;100.00;148532.19;5004835;28;20030;-62
2022/12/07 00:31:05;;;;;;;27.33;13.73;;;;;;;4.24;100.00;148518.03;5016324;28;20392;-61
2022/12/07 00:33:31;;;;;;;28.33;12.13;;;;;;;4.00;100.00;148457.50;5009846;28;20037;-61
2022/12/07 00:35:58;;;;;;;28.43;11.80;;;;;;;3.93;100.00;148439.44;5008809;28;20041;-61
2022/12/07 00:38:24;;;;;;;30.43;12.33;;;;;;;3.89;100.00;148427.88;5001646;28;20113;-61
2022/12/07 00:41:00;;;;;;;25.33;11.30;;;;;;;3.88;100.00;148426.59;4997322;28;20042;-62
2022/12/07 00:43:26;;;;;;;26.20;11.17;;;;;;;3.86;100.00;148421.41;5002223;28;20554;-62
2022/12/07 00:45:53;;;;;;;28.07;11.47;;;;;;;3.76;100.00;148395.69;5002220;28;20034;-61
2022/12/07 00:48:18;;;;;;;27.10;12.27;;;;;;;3.76;100.00;148395.69;5003275;28;20030;-61
2022/12/07 00:50:44;;;;;;;32.97;12.80;;;;;;;3.68;100.00;148375.09;5009949;28;20017;-61
2022/12/07 00:53:09;;;;;;;27.43;10.57;;;;;;;3.67;100.00;148372.50;5016885;28;20029;-61
2022/12/07 00:55:35;;;;;;;30.57;12.33;;;;;;;3.56;100.00;148344.19;5014937;28;20036;-61
2022/12/07 00:58:01;;;;;;;30.93;11.67;;;;;;;3.52;100.00;148336.47;5011116;28;20519;-61
2022/12/07 01:00:26;;;;;;;28.87;11.53;;;;;;;3.42;100.00;148309.44;5006109;28;20038;-62
2022/12/07 01:02:52;;;;;;;32.23;12.93;;;;;;;3.47;100.00;148323.56;5007460;28;20493;-61
2022/12/07 01:05:18;;;;;;;32.20;12.77;;;;;;;3.43;100.00;148313.28;5011609;28;20037;-61
2022/12/07 01:07:43;;;;;;;33.10;12.23;;;;;;;3.31;100.00;148282.41;5010952;28;20056;-61
2022/12/07 01:10:09;;;;;;;30.03;12.53;;;;;;;3.27;100.00;148270.78;5010756;28;20021;-61
2022/12/07 01:12:35;;;;;;;30.27;12.03;;;;;;;3.18;100.00;148248.94;5017218;28;20048;-62
2022/12/07 01:15:00;;;;;;;31.80;12.70;;;;;;;3.24;100.00;148264.38;5032940;28;20096;-61
2022/12/07 01:17:25;;;;;;;37.20;12.27;;;;;;;3.20;100.00;148254.09;5016392;28;20022;-62
2022/12/07 01:19:51;;;;;;;38.87;13.70;;;;;;;3.18;100.00;148248.94;5024957;28;20041;-61
2022/12/07 01:22:16;;;;;;;33.97;12.23;;;;;;;3.19;100.00;148251.53;5032484;28;20032;-61
2022/12/07 01:24:41;;;;;;;36.20;13.40;;;;;;;3.17;100.00;148247.66;5032763;28;20446;-61
2022/12/07 01:27:07;;;;;;;36.47;13.10;;;;;;;3.12;100.00;148233.47;5021269;28;20018;-61
2022/12/07 01:29:32;;;;;;;37.37;13.53;;;;;;;3.10;100.00;148229.63;5015685;28;20072;-61
2022/12/07 01:32:00;;;;;;;40.37;13.93;;;;;;;2.89;100.00;148175.59;5032832;28;20017;-62
2022/12/07 01:34:25;;;;;;;42.87;13.23;;;;;;;3.04;100.00;148212.94;5025596;28;20072;-61
2022/12/07 01:36:51;;;;;;;35.50;13.83;;;;;;;3.06;100.00;148219.34;5013256;28;20053;-61
2022/12/07 01:39:16;;;;;;;38.53;13.40;;;;;;;2.91;100.00;148182.06;5008116;28;20014;-61
2022/12/07 01:41:43;;;;;;;40.33;14.10;;;;;;;2.97;100.00;148194.91;5011701;28;20022;-60
2022/12/07 01:44:17;;;;;;;39.57;13.33;;;;;;;2.83;100.00;148160.19;5013525;28;20113;-60
2022/12/07 01:46:54;;;;;;;40.77;13.70;;;;;;;2.72;100.00;148133.16;5013001;28;20096;-61
2022/12/07 01:49:43;;;;;;;40.53;13.13;;;;;;;2.86;100.00;148167.88;5013698;28;20417;-61
2022/12/07 01:52:16;;;;;;;40.60;13.03;;;;;;;2.80;100.00;148152.47;5010986;28;20037;-61
2022/12/07 01:54:44;;;;;;;39.43;13.47;;;;;;;2.65;100.00;148115.13;5007119;28;20034;-61
2022/12/07 01:57:11;;;;;;;53.73;15.17;;;;;;;2.54;100.00;148086.81;5008195;28;20429;-62
2022/12/07 01:59:38;;;;;;;45.10;14.07;;;;;;;2.74;100.00;148138.28;5009153;28;20100;-61
2022/12/07 02:04:35;;;;;;;44.33;13.30;;;;;;;2.76;100.00;148143.44;5045826;22;20172;-73
2022/12/07 02:07:03;;;;;;;45.27;13.73;;;;;;;2.70;100.00;148128.00;5046708;28;20037;-72
2022/12/07 02:09:28;;;;;;;39.80;13.77;;;;;;;2.79;100.00;148151.19;5046142;28;20021;-72
2022/12/07 02:11:55;;;;;;;45.07;13.63;;;;;;;2.76;100.00;148143.44;5041792;28;20530;-73
2022/12/07 02:14:20;;;;;;;39.87;12.97;;;;;;;2.74;100.00;148138.28;5049284;28;20448;-73
2022/12/07 02:16:58;;;;;;;43.30;13.90;;;;;;;2.76;100.00;148143.44;5047273;28;20029;-73
2022/12/07 02:20:02;;;;;;;36.77;11.27;;;;;;;2.76;100.00;148143.44;5046149;28;20484;-73
2022/12/07 02:22:30;;;;;;;38.20;13.30;;;;;;;2.63;100.00;148110.00;5044033;28;20495;-73
2022/12/07 02:25:20;;;;;;;39.47;12.70;;;;;;;2.57;100.00;148095.88;5048408;28;20503;-72
2022/12/07 02:27:50;;;;;;;47.77;13.30;;;;;;;2.53;100.00;148084.25;5045937;28;20036;-72
2022/12/07 02:30:19;;;;;;;48.17;13.17;;;;;;;2.54;100.00;148086.81;5043036;28;20434;-73
2022/12/07 02:32:58;;;;;;;44.03;13.83;;;;;;;2.52;100.00;148081.69;5048141;28;20021;-72
2022/12/07 02:35:49;;;;;;;47.63;13.07;;;;;;;2.52;100.00;148081.69;5049165;28;20025;-73
2022/12/07 02:38:39;;;;;;;46.53;14.40;;;;;;;2.46;100.00;148067.56;5043100;28;20136;-72
2022/12/07 02:41:14;;;;;;;47.10;14.20;;;;;;;2.49;100.00;148074.00;5048131;28;20033;-73
2022/12/07 02:43:45;;;;;;;44.83;13.30;;;;;;;2.60;100.00;148103.56;5047865;28;20079;-73
2022/12/07 02:46:20;;;;;;;30.52;10.18;;;;;;;2.74;100.00;148137.00;5042972;28;20422;-72
2022/12/07 02:48:47;;;;;;;37.90;11.43;;;;;;;2.82;100.00;148157.59;5046190;28;20025;-72
2022/12/07 02:51:12;;;;;;;37.90;11.13;;;;;;;2.77;100.00;148146.00;5048968;28;20021;-72
2022/12/07 02:53:40;;;;;;;32.27;9.77;;;;;;;2.80;100.00;148153.75;5046872;28;20109;-72
2022/12/07 02:56:28;;;;;;;28.30;10.27;;;;;;;2.76;100.00;148143.44;5048816;28;20371;-72
2022/12/07 02:58:59;;;;;;;31.90;9.80;;;;;;;2.82;100.00;148158.88;5036207;28;20064;-72
2022/12/07 03:01:51;;;;;;;34.90;10.05;;;;;;;2.67;100.00;148120.31;5044824;28;20120;-72
2022/12/07 03:04:44;;;;;;;38.20;10.77;;;;;;;2.66;100.00;148117.69;5045541;28;20039;-72
2022/12/07 03:07:34;;;;;;;30.87;9.07;;;;;;;2.67;100.00;148119.03;5044312;28;20025;-72
2022/12/07 03:10:02;;;;;;;31.20;9.60;;;;;;;2.55;100.00;148089.44;5044525;28;20029;-73
2022/12/07 03:12:58;;;;;;;32.80;9.80;;;;;;;2.49;100.00;148074.00;5047682;28;20028;-72
2022/12/07 03:15:45;;;;;;;29.23;9.37;;;;;;;2.50;100.00;148076.56;5046702;28;20028;-72
2022/12/07 03:18:13;;;;;;;26.03;9.53;;;;;;;2.47;100.00;148070.13;5039349;28;20029;-72
2022/12/07 03:20:43;;;;;;;30.87;9.13;;;;;;;2.43;100.00;148059.88;5045772;28;20021;-73
2022/12/07 03:23:10;;;;;;;24.50;8.37;;;;;;;2.47;100.00;148070.13;5041511;28;20067;-72
2022/12/07 03:25:41;;;;;;;30.13;9.23;;;;;;;2.31;100.00;148030.28;5045466;28;20025;-72
2022/12/07 03:28:09;;;;;;;26.55;9.32;;;;;;;2.17;100.00;147994.25;5045901;28;20020;-73
2022/12/07 03:31:01;;;;;;;31.53;9.70;;;;;;;2.00;100.00;147950.56;5044357;28;20079;-73
2022/12/07 03:33:34;;;;;;;28.67;9.50;;;;;;;1.97;100.00;147942.88;5043066;28;20029;-73
2022/12/07 03:36:11;;;;;;;33.93;9.73;;;;;;;1.93;100.00;147932.56;5041001;28;20500;-73
2022/12/07 03:39:07;;;;;;;31.13;9.60;;;;;;;1.91;100.00;147927.41;5044420;28;20036;-73
2022/12/07 03:41:36;;;;;;;32.70;10.13;;;;;;;1.81;100.00;147903.00;5045394;28;20033;-73
2022/12/07 03:44:02;;;;;;;28.57;9.47;;;;;;;1.87;100.00;147917.16;5046747;28;20025;-73
2022/12/07 03:46:52;;;;;;;30.63;9.70;;;;;;;1.90;100.00;147924.84;5042009;28;20032;-73
2022/12/07 03:49:56;;;;;;;35.67;10.43;;;;;;;1.93;100.00;147932.56;5043081;28;20096;-72
2022/12/07 03:52:24;;;;;;;24.07;9.07;;;;;;;2.01;100.00;147953.13;5041802;28;20041;-70
2022/12/07 03:55:04;;;;;;;27.70;9.23;;;;;;;2.02;100.00;147955.69;5045384;28;20086;-70
2022/12/07 03:57:31;;;;;;;26.97;8.20;;;;;;;2.05;100.00;147963.41;5050385;28;20480;-71
2022/12/07 03:59:57;;;;;;;33.80;9.80;;;;;;;2.05;100.00;147964.69;5044839;28;20021;-71
2022/12/07 04:02:25;;;;;;;22.40;6.67;;;;;;;2.19;100.00;147999.44;5046414;28;20025;-70
2022/12/07 04:04:50;;;;;;;22.50;7.37;;;;;;;2.40;100.00;148050.84;5044897;28;20027;-72
2022/12/07 04:07:15;;;;;;;31.00;8.03;;;;;;;2.51;100.00;148079.13;5037512;28;20484;-70
2022/12/07 04:09:41;;;;;;;25.53;8.20;;;;;;;2.51;100.00;148079.13;5040110;28;20108;-70
2022/12/07 04:12:07;;;;;;;21.30;6.40;;;;;;;2.51;100.00;148079.13;5044968;28;20365;-71
2022/12/07 04:14:32;;;;;;;24.87;6.23;;;;;;;2.60;100.00;148102.28;5043402;28;20028;-70
2022/12/07 04:16:58;;;;;;;20.47;5.97;;;;;;;2.60;100.00;148102.28;5046867;28;20522;-71
2022/12/07 04:19:32;;;;;;;18.47;5.87;;;;;;;2.61;100.00;148104.84;5039570;28;20029;-70
2022/12/07 04:21:59;;;;;;;20.97;6.00;;;;;;;2.69;100.00;148125.44;5045540;28;20123;-70
2022/12/07 04:24:25;;;;;;;19.60;5.20;;;;;;;2.67;100.00;148120.31;5039990;28;20120;-70
2022/12/07 04:26:51;;;;;;;18.83;4.93;;;;;;;2.61;100.00;148104.84;5043424;28;20112;-71
2022/12/07 04:29:17;;;;;;;17.30;4.40;;;;;;;2.52;100.00;148081.69;5044814;28;20534;-70
2022/12/07 04:31:43;;;;;;;19.70;4.87;;;;;;;2.48;100.00;148071.41;5044272;28;20532;-70
2022/12/07 04:34:09;;;;;;;12.20;4.20;;;;;;;2.38;100.00;148045.69;5045761;28;20020;-70
2022/12/07 04:36:34;;;;;;;19.43;4.60;;;;;;;2.30;100.00;148026.38;5045711;28;20658;-70
2022/12/07 04:39:00;;;;;;;18.23;4.50;;;;;;;2.28;100.00;148022.53;5047549;28;20037;-71
2022/12/07 04:41:29;;;;;;;12.30;3.80;;;;;;;2.16;100.00;147991.69;5046576;28;20098;-70
2022/12/07 04:44:00;;;;;;;12.47;4.20;;;;;;;2.23;100.00;148009.69;5043946;28;20025;-70
2022/12/07 04:46:27;;;;;;;23.58;6.60;;;;;;;2.21;100.00;148004.56;5050760;28;20315;-71
2022/12/07 04:48:53;;;;;;;16.60;4.27;;;;;;;2.23;100.00;148008.41;5053211;28;20021;-70
2022/12/07 04:51:22;;;;;;;13.53;4.60;;;;;;;2.27;100.00;148019.97;5053966;28;20028;-70
2022/12/07 04:53:48;;;;;;;15.47;4.30;;;;;;;2.38;100.00;148045.69;5051010;28;20032;-70
2022/12/07 04:56:14;;;;;;;17.90;4.27;;;;;;;2.50;100.00;148076.56;5053801;28;20052;-70
2022/12/07 04:58:40;;;;;;;14.83;3.47;;;;;;;2.59;100.00;148099.72;5046380;28;20029;-70
2022/12/07 05:01:06;;;;;;;18.90;4.23;;;;;;;2.66;100.00;148117.69;5048052;28;20100;-70
2022/12/07 05:03:31;;;;;;;13.83;3.73;;;;;;;2.73;100.00;148135.72;5053290;28;20036;-71
2022/12/07 05:05:57;;;;;;;16.53;3.57;;;;;;;2.77;100.00;148146.00;5057315;28;20468;-71
2022/12/07 05:08:22;;;;;;;11.93;3.13;;;;;;;2.75;100.00;148140.84;5053724;28;20469;-70
2022/12/07 05:10:49;;;;;;;11.33;2.80;;;;;;;2.74;100.00;148138.28;5044277;28;20027;-70
2022/12/07 05:13:14;;;;;;;8.37;2.80;;;;;;;2.75;100.00;148140.84;5053025;28;20024;-71
2022/12/07 05:15:40;;;;;;;12.43;3.47;;;;;;;2.72;100.00;148133.16;5044314;28;20079;-70
2022/12/07 05:18:05;;;;;;;10.33;3.37;;;;;;;2.74;100.00;148138.28;5043824;28;20021;-71
2022/12/07 05:20:31;;;;;;;8.67;2.97;;;;;;;2.69;100.00;148125.44;5045273;28;20036;-70
2022/12/07 05:22:58;;;;;;;11.13;3.20;;;;;;;2.61;100.00;148104.84;5043511;28;20029;-70
2022/12/07 05:25:23;;;;;;;7.90;2.97;;;;;;;2.58;100.00;148097.16;5046240;28;20365;-71
2022/12/07 05:27:49;;;;;;;11.07;3.07;;;;;;;2.64;100.00;148112.56;5043811;28;20056;-70
2022/12/07 05:30:15;;;;;;;12.53;2.80;;;;;;;2.68;100.00;148121.59;5044875;28;20017;-70
2022/12/07 05:32:40;;;;;;;9.73;3.00;;;;;;;2.72;100.00;148133.16;5043309;28;20084;-72
2022/12/07 05:35:06;;;;;;;11.83;2.67;;;;;;;2.85;100.00;148166.59;5051761;28;20325;-71
2022/12/07 05:37:31;;;;;;;8.17;2.30;;;;;;;2.86;100.00;148169.16;5045905;28;20045;-70
2022/12/07 05:39:56;;;;;;;12.93;2.70;;;;;;;2.79;100.00;148151.19;5049732;28;20017;-71
2022/12/07 05:42:22;;;;;;;13.63;3.30;;;;;;;2.72;100.00;148133.16;5050340;28;20021;-70
2022/12/07 05:44:47;;;;;;;12.43;3.53;;;;;;;2.76;100.00;148142.16;5051624;28;20436;-72
2022/12/07 05:47:14;;;;;;;8.40;2.63;;;;;;;2.72;100.00;148133.16;5051511;28;20024;-71
2022/12/07 05:49:40;;;;;;;11.47;2.80;;;;;;;2.76;100.00;148143.44;5045131;28;20013;-70
2022/12/07 05:52:06;;;;;;;9.90;2.63;;;;;;;2.70;100.00;148128.00;5050358;28;20500;-72
2022/12/07 05:54:31;;;;;;;7.10;2.47;;;;;;;2.79;100.00;148151.19;5052432;28;20395;-71
2022/12/07 05:56:57;;;;;;;10.33;2.30;;;;;;;2.75;100.00;148139.56;5039973;28;20025;-70
2022/12/07 05:59:22;;;;;;;9.70;2.10;;;;;;;2.74;100.00;148138.28;5051898;28;20056;-70
2022/12/07 06:01:49;;;;;;;14.83;2.67;;;;;;;2.71;100.00;148130.59;5046716;28;20480;-70
2022/12/07 06:04:16;;;;;;;15.60;2.37;;;;;;;2.80;100.00;148153.75;5050564;28;20025;-70
2022/12/07 06:06:42;;;;;;;11.13;2.67;;;;;;;2.84;100.00;148164.03;5040965;28;20061;-70
2022/12/07 06:09:07;;;;;;;7.30;2.00;;;;;;;2.94;100.00;148189.75;5045513;28;20151;-71
2022/12/07 06:14:16;;;;;;;5.70;1.83;;;;;;;3.04;100.00;148212.94;5045858;28;20051;-72
2022/12/07 06:16:42;;;;;;;8.73;2.33;;;;;;;3.00;100.00;148203.88;5050056;28;20104;-71
2022/12/07 06:19:07;;;;;;;9.40;2.00;;;;;;;3.00;100.00;148202.59;5045361;28;20056;-71
2022/12/07 06:21:32;;;;;;;13.90;2.30;;;;;;;3.00;100.00;148202.59;5057551;28;20094;-71
2022/12/07 06:23:58;;;;;;;9.60;2.20;;;;;;;2.93;100.00;148187.19;5044022;28;20032;-70
2022/12/07 06:26:23;;;;;;;8.50;2.27;;;;;;;2.93;100.00;148187.19;5047124;28;20460;-71
2022/12/07 06:28:49;;;;;;;11.93;2.20;;;;;;;2.87;100.00;148171.72;5051409;28;20024;-70
2022/12/07 06:31:14;;;;;;;9.17;2.43;;;;;;;2.80;100.00;148152.47;5049428;28;20029;-71
2022/12/07 06:33:41;;;;;;;8.70;2.10;;;;;;;2.72;100.00;148133.16;5051983;28;20102;-71
2022/12/07 06:36:07;;;;;;;15.47;3.20;;;;;;;2.69;100.00;148125.44;5043416;28;20116;-71
2022/12/07 06:38:32;;;;;;;6.13;2.03;;;;;;;2.73;100.00;148135.72;5047486;28;20116;-70
2022/12/07 06:40:57;;;;;;;12.00;2.70;;;;;;;2.69;100.00;148125.44;5046726;28;20083;-71
2022/12/07 06:43:23;;;;;;;9.77;2.37;;;;;;;2.65;100.00;148115.13;5041840;28;20031;-70
2022/12/07 06:45:48;;;;;;;9.93;3.03;;;;;;;2.65;100.00;148115.13;5049399;28;20044;-70
2022/12/07 06:48:14;;;;;;;6.13;2.30;;;;;;;2.63;100.00;148110.00;5049264;28;20032;-71
2022/12/07 06:50:39;;;;;;;11.30;2.93;;;;;;;2.67;100.00;148119.03;5051618;28;20055;-70
2022/12/07 06:53:05;;;;;;;8.23;2.40;;;;;;;2.70;100.00;148128.00;5045179;28;20032;-71
2022/12/07 06:55:30;;;;;;;9.47;2.30;;;;;;;2.79;100.00;148151.19;5049136;28;20033;-70
2022/12/07 06:57:55;;;;;;;6.70;2.13;;;;;;;2.81;100.00;148156.31;5047980;28;20021;-71
2022/12/07 07:00:21;;;;;;;9.87;2.30;;;;;;;2.84;100.00;148164.03;5045218;28;20121;-71
2022/12/07 07:02:46;;;;;;;7.40;2.03;;;;;;;2.89;100.00;148175.59;5040830;28;20030;-71
2022/12/07 07:05:12;;;;;;;7.87;2.30;;;;;;;2.87;100.00;148171.72;5046185;28;20473;-72
2022/12/07 07:07:37;;;;;;;6.97;3.40;;;;;;;2.90;100.00;148178.16;5049842;28;20048;-71
2022/12/07 07:10:03;;;;;;;10.43;4.10;;;;;;;2.94;100.00;148189.75;5050511;28;20036;-70
2022/12/07 07:12:28;;;;;;;11.60;3.30;;;;;;;2.99;100.00;148200.03;5048719;28;20037;-71
2022/12/07 07:14:53;;;;;;;14.20;3.10;;;;;;;2.94;100.00;148189.75;5047664;28;20025;-70
2022/12/07 07:17:19;;;;;;;12.17;2.70;;;;;;;2.91;100.00;148180.78;5044574;28;20037;-71
2022/12/07 07:19:44;;;;;;;11.80;3.40;;;;;;;2.91;100.00;148182.06;5041595;28;20029;-72
2022/12/07 07:22:10;;;;;;;8.70;3.63;;;;;;;2.94;100.00;148189.75;5042036;28;20024;-71
2022/12/07 07:24:35;;;;;;;11.83;2.90;;;;;;;2.93;100.00;148185.91;5034088;28;20540;-70
2022/12/07 07:27:00;;;;;;;11.10;2.80;;;;;;;2.90;100.00;148178.16;5045964;28;20108;-71
2022/12/07 07:29:26;;;;;;;11.20;2.87;;;;;;;2.89;100.00;148175.59;5051017;28;20021;-70
2022/12/07 07:31:51;;;;;;;11.00;2.90;;;;;;;2.92;100.00;148184.63;5048515;28;20428;-70
2022/12/07 07:34:17;;;;;;;10.73;3.07;;;;;;;2.94;100.00;148189.75;5049564;28;20017;-71
2022/12/07 07:36:42;;;;;;;14.33;2.80;;;;;;;2.91;100.00;148182.06;5050675;28;20055;-71
2022/12/07 07:39:09;;;;;;;14.20;2.97;;;;;;;2.91;100.00;148182.06;5049275;28;20120;-72
2022/12/07 07:41:34;;;;;;;11.67;3.10;;;;;;;2.90;100.00;148179.44;5042371;28;20028;-72
2022/12/07 07:43:59;;;;;;;10.43;2.33;;;;;;;2.92;100.00;148183.34;5039770;28;20055;-71
2022/12/07 07:46:25;;;;;;;8.80;2.50;;;;;;;2.89;100.00;148175.59;5043237;28;20025;-71
2022/12/07 07:48:50;;;;;;;8.20;2.47;;;;;;;2.89;100.00;148176.88;5045645;28;20048;-71
2022/12/07 07:51:16;;;;;;;13.53;2.70;;;;;;;2.87;100.00;148171.72;5046435;28;20132;-70
2022/12/07 07:53:41;;;;;;;14.80;2.30;;;;;;;2.80;100.00;148152.47;5042833;28;20029;-70
2022/12/07 07:56:06;;;;;;;14.37;2.33;;;;;;;2.72;100.00;148133.16;5038661;28;20030;-72
2022/12/07 07:58:32;;;;;;;13.60;3.00;;;;;;;2.63;100.00;148110.00;5045451;28;20385;-69
2022/12/07 08:01:03;;;;;;;13.57;2.80;;;;;;;2.53;100.00;148084.25;5048618;28;20032;-69
2022/12/07 08:03:28;;;;;;;8.55;2.83;;;;;;;2.54;100.00;148086.81;5050329;28;20447;-70
2022/12/07 08:05:54;;;;;;;9.67;2.80;;;;;;;2.58;100.00;148098.44;5048136;28;20033;-71
2022/12/07 08:08:19;;;;;;;16.63;3.60;;;;;;;2.53;100.00;148085.53;5049558;28;20322;-71
2022/12/07 08:10:44;;;;;;;10.73;3.20;;;;;;;2.59;100.00;148099.72;5050540;28;20409;-69
2022/12/07 08:13:16;;;;;;;13.23;3.00;;;;;;;2.58;100.00;148097.16;5049483;28;20118;-70
2022/12/07 08:15:44;;;;;;;14.43;3.10;;;;;;;2.52;100.00;148081.69;5050451;28;20538;-70
2022/12/07 08:18:10;;;;;;;9.43;2.77;;;;;;;2.49;100.00;148074.00;5051009;28;20377;-72
2022/12/07 08:20:36;;;;;;;11.70;2.87;;;;;;;2.84;100.00;148164.03;5050868;28;20029;-70
2022/12/07 08:23:02;;;;;;;11.27;3.30;;;;;;;3.05;100.00;148215.50;5054294;28;20027;-70
2022/12/07 08:25:28;;;;;;;8.60;2.33;;;;;;;3.37;100.00;148297.81;5053532;28;20025;-71
2022/12/07 08:27:54;;;;;;;8.77;2.10;;;;;;;3.52;100.00;148336.47;5054384;28;20048;-70
2022/12/07 08:30:20;;;;;;;8.13;2.07;;;;;;;3.46;100.00;148321.00;5054054;28;20067;-70
2022/12/07 08:32:47;;;;;;;10.00;2.30;;;;;;;3.52;100.00;148336.47;5052378;28;20370;-70
2022/12/07 08:35:13;;;;;;;6.10;1.80;;;;;;;3.47;100.00;148323.56;5052953;28;20078;-70
2022/12/07 08:37:39;;;;;;;9.00;2.03;;;;;;;3.38;100.00;148300.41;5053514;28;20100;-70
2022/12/07 08:40:06;;;;;;;6.60;2.00;;;;;;;3.46;100.00;148321.00;5050781;28;20037;-70
2022/12/07 08:42:37;;;;;;;6.53;1.50;;;;;;;3.40;100.00;148305.59;5053462;28;20031;-70
2022/12/07 08:45:09;;;;;;;7.03;1.85;;;;;;;3.28;100.00;148274.69;5053987;28;20565;-70
2022/12/07 08:47:38;;;;;;;10.57;1.95;;;;;;;3.26;100.00;148268.22;5053125;28;20373;-70
2022/12/07 08:50:06;;;;;;;11.93;1.80;;;;;;;3.17;100.00;148246.38;5053504;28;20017;-70
2022/12/07 08:52:33;;;;;;;7.33;2.10;;;;;;;3.25;100.00;148266.94;5040057;28;20075;-71
2022/12/07 08:55:00;;;;;;;10.57;2.27;;;;;;;3.18;100.00;148248.94;5046282;28;20249;-69
2022/12/07 08:57:27;;;;;;;12.70;2.00;;;;;;;3.05;100.00;148216.78;5048647;28;20029;-71
2022/12/07 08:59:53;;;;;;;8.40;1.73;;;;;;;2.91;100.00;148182.06;5058058;28;20021;-71
2022/12/07 09:02:19;;;;;;;11.07;1.90;;;;;;;2.85;100.00;148166.59;5050752;28;20025;-70
2022/12/07 09:04:44;;;;;;;15.97;1.97;;;;;;;2.82;100.00;148157.59;5054721;28;20063;-70
2022/12/07 09:07:10;;;;;;;4.97;1.50;;;;;;;2.78;100.00;148148.56;5051601;28;20415;-71
2022/12/07 09:09:35;;;;;;;9.67;1.87;;;;;;;2.83;100.00;148160.19;5049834;28;20469;-71
2022/12/07 09:12:00;;;;;;;6.50;1.77;;;;;;;2.80;100.00;148152.47;5045948;28;20013;-70
2022/12/07 09:14:26;;;;;;;16.03;2.40;;;;;;;3.06;100.00;148219.34;5047203;28;20036;-70
2022/12/07 09:16:51;;;;;;;7.87;1.80;;;;;;;3.12;100.00;148233.47;5052450;28;20384;-70
2022/12/07 09:19:17;;;;;;;10.90;2.23;;;;;;;3.27;100.00;148270.78;5054040;28;20025;-70
2022/12/07 09:21:42;;;;;;;10.50;1.70;;;;;;;3.43;100.00;148312.00;5052486;28;20361;-70
2022/12/07 09:24:09;;;;;;;5.73;1.40;;;;;;;3.59;100.00;148351.91;5049527;28;20021;-71
2022/12/07 09:26:35;;;;;;;7.97;1.93;;;;;;;3.67;100.00;148373.78;5040720;28;20029;-70
2022/12/07 09:29:02;;;;;;;9.03;2.50;;;;;;;3.93;100.00;148439.44;5054881;28;20449;-71
2022/12/07 09:31:27;;;;;;;10.23;2.10;;;;;;;3.82;100.00;148411.13;5054826;28;20263;-71
2022/12/07 09:33:58;;;;;;;7.60;1.97;;;;;;;3.89;100.00;148429.16;5038258;28;20108;-71
2022/12/07 09:36:25;;;;;;;4.47;1.60;;;;;;;3.75;100.00;148393.06;5042520;28;20025;-71
2022/12/07 09:38:50;;;;;;;10.70;2.07;;;;;;;3.82;100.00;148411.13;5044429;28;20036;-71
2022/12/07 09:41:16;;;;;;;6.67;1.80;;;;;;;3.64;100.00;148364.78;5042325;28;20403;-71
2022/12/07 09:43:41;;;;;;;8.23;2.70;;;;;;;3.61;100.00;148357.03;5044982;28;20033;-71
2022/12/07 09:46:14;;;;;;;8.07;2.10;;;;;;;3.55;100.00;148341.63;5041419;28;20072;-70
2022/12/07 09:48:42;;;;;;;6.43;2.23;;;;;;;3.52;100.00;148336.47;5033969;28;20366;-70
2022/12/07 09:51:21;;;;;;;7.77;2.00;;;;;;;3.68;100.00;148375.09;5038151;28;20029;-70
2022/12/07 09:53:48;;;;;;;12.10;2.50;;;;;;;3.82;100.00;148411.13;5038100;28;20029;-71
2022/12/07 09:56:15;;;;;;;7.23;2.50;;;;;;;3.91;100.00;148434.31;5037071;28;20029;-71
2022/12/07 09:58:42;;;;;;;9.73;2.50;;;;;;;3.94;100.00;148442.03;5053180;28;20041;-71
2022/12/07 10:01:07;;;;;;;12.93;3.20;;;;;;;4.08;100.00;148478.06;5045763;28;20026;-71
2022/12/07 10:03:34;;;;;;;10.83;2.60;;;;;;;4.05;100.00;148470.34;5038030;28;20051;-71
2022/12/07 10:06:00;;;;;;;8.27;2.43;;;;;;;4.02;100.00;148462.66;5031719;28;20043;-71
2022/12/07 10:08:25;;;;;;;10.27;2.43;;;;;;;3.93;100.00;148439.44;5044033;28;20033;-70
2022/12/07 10:10:55;;;;;;;9.30;2.33;;;;;;;3.89;100.00;148427.88;5046881;28;20108;-71
2022/12/07 10:13:34;;;;;;;10.80;2.20;;;;;;;3.93;100.00;148439.44;5070216;28;20036;-70
2022/12/07 10:15:59;;;;;;;9.63;2.47;;;;;;;4.00;100.00;148457.50;5050833;28;20032;-71
2022/12/07 10:18:49;;;;;;;8.20;2.20;;;;;;;3.87;100.00;148422.69;5046245;28;20040;-71
2022/12/07 10:21:20;;;;;;;11.30;3.03;;;;;;;3.76;100.00;148395.69;5055940;28;20048;-71
2022/12/07 10:24:05;;;;;;;17.20;3.00;;;;;;;3.69;100.00;148377.66;5053218;28;20119;-71
2022/12/07 10:26:35;;;;;;;8.60;2.10;;;;;;;3.56;100.00;148345.47;5058771;28;20036;-71
2022/12/07 10:29:22;;;;;;;9.97;2.40;;;;;;;3.53;100.00;148339.03;5043773;28;20034;-71
2022/12/07 10:31:57;;;;;;;13.67;2.63;;;;;;;3.52;100.00;148336.47;5041740;28;20041;-70
2022/12/07 10:34:26;;;;;;;8.77;2.50;;;;;;;3.54;100.00;148340.31;5043397;28;20078;-70
2022/12/07 10:36:53;;;;;;;11.83;2.83;;;;;;;3.56;100.00;148344.19;5053872;28;20021;-70
2022/12/07 10:39:21;;;;;;;11.87;2.80;;;;;;;3.64;100.00;148366.09;5054650;28;20430;-71
2022/12/07 10:41:56;;;;;;;9.60;2.77;;;;;;;3.88;100.00;148425.25;5056002;28;20032;-71
2022/12/07 10:44:25;;;;;;;7.70;2.30;;;;;;;3.90;100.00;148431.75;5063319;28;20502;-71
2022/12/07 10:47:29;;;;;;;9.63;2.50;;;;;;;4.09;100.00;148480.66;5048079;28;20028;-70
2022/12/07 10:50:19;;;;;;;7.60;1.97;;;;;;;4.13;100.00;148488.41;5024054;28;20083;-71
2022/12/07 10:53:08;;;;;;;9.07;2.30;;;;;;;4.48;100.00;148578.53;5061969;28;20032;-71
2022/12/07 10:55:55;;;;;;;10.37;2.40;;;;;;;4.63;100.00;148617.22;5051949;28;20064;-70
2022/12/07 10:58:39;;;;;;;8.60;1.90;;;;;;;4.59;100.00;148606.88;5057623;28;20123;-71
2022/12/07 11:01:13;;;;;;;5.87;1.47;;;;;;;4.75;100.00;148645.56;5052878;28;20028;-71
2022/12/07 11:04:00;;;;;;;6.23;1.87;;;;;;;4.76;100.00;148648.16;5063121;28;20032;-71
2022/12/07 11:06:43;;;;;;;4.90;1.40;;;;;;;5.00;100.00;148710.00;5046802;28;21206;-71
2022/12/07 11:09:47;;;;;;;7.37;1.70;;;;;;;5.21;100.00;148764.16;5051974;28;20029;-71
2022/12/07 11:12:31;;;;;;;7.60;1.70;;;;;;;5.21;100.00;148762.88;5030072;28;20046;-71
2022/12/07 11:15:01;;;;;;;15.77;2.63;;;;;;;5.23;100.00;148768.00;5039321;28;20025;-71
2022/12/07 11:17:42;;;;;;;7.30;2.10;;;;;;;4.90;100.00;148684.22;5047588;28;20036;-71
2022/12/07 11:20:29;;;;;;;5.72;1.70;;;;;;;4.75;100.00;148645.56;5039887;28;20029;-69
2022/12/07 11:23:11;;;;;;;7.10;1.90;;;;;;;4.80;100.00;148658.44;5065333;28;20044;-71
2022/12/07 11:25:58;;;;;;;13.00;2.43;;;;;;;4.87;100.00;148676.50;5044934;28;20043;-70
2022/12/07 11:28:33;;;;;;;8.50;1.60;;;;;;;4.90;100.00;148685.50;5046234;28;20037;-71
2022/12/07 11:31:07;;;;;;;9.20;1.97;;;;;;;4.91;100.00;148688.06;5056031;28;20029;-71
2022/12/07 11:33:38;;;;;;;4.73;1.60;;;;;;;5.04;100.00;148720.31;5051864;28;20127;-70